Terminal Aerodrome Forecast
Issued by NWS Denver/Boulder, CO

Home | Current Version | Previous Version | Graphics & Text | Print | Product List | Glossary On
Versions: 1 2 3 4 5 6 7 8 9 10 11 12 13 14 15 16 17 18 19 20 21 22 23 24 25 26 27 28 29 30 31 32
000
FTUS45 KBOU 260840 AAA
TAFDEN
TAF AMD
KDEN 260840Z 2609/2712 22012KT P6SM FEW250
     FM261700 27011KT P6SM FEW150 SCT220
     FM262300 34008KT P6SM SCT080 BKN150
     FM270200 24007KT P6SM FEW090 BKN140
     FM271000 02012KT P6SM FEW050 BKN090=

USA.gov is the U.S. government's official web portal to all federal, state and local government web resources and services.